PWSweather.com
Personal Weather Stations
Station Observations
KVAGLENALL
West Henrico, Glen Allen, VA 23060-6503

West HenricoGlen Allen, VA 23060-6503

Lat: 37.6554, Lon: -77.5693

Elevation: 273

Station Type: Davis Vantage Pro II

www.glenallenweather.com

High Low Average
Temperature 52.9°F11.6°C 42.3°F5.7°C 47.2°F8.4°C
Dew Point 52.0°F11.1°C 41.0°F5.0°C 46.2°F7.9°C
Winds 6.0 mph 9.7 kmh Calm Calm 3.0 mph S4.8 kmh S
Wind Gusts 10.1 mph16.3 kmh -- 5.0 mph8.0 kmh
Humidity 98% 95% 96%
Pressure 30.27 in1025.1 mb 29.89 in1012.2 mb -
Precipitation 0.00 in0.0 mm - -
Hour Temp Dew Point Humidity Winds Wind Gusts Pressure Precip Precip Rate Daily Precip Total
12:30 AM 43.2°F6.2°C 41.9°F5.5°C 95% Calm Calm 2.0 mph3.2 kmh 30.27 in1025.1 mb 0.07 in1.8 mm 0.14 in3.6 mm 0.07 in1.8 mm
01:30 AM 42.3°F5.7°C 41.0°F5.0°C 95% 1.0 mph NW1.6 kmh NW 2.0 mph3.2 kmh 30.24 in1024.0 mb 0.12 in3.0 mm 0.00 in0.0 mm 0.12 in3.0 mm
02:30 AM 42.4°F5.8°C 41.1°F5.1°C 95% 3.0 mph NNE4.8 kmh NNE 3.0 mph4.8 kmh 30.21 in1023.0 mb 0.06 in1.5 mm 0.00 in0.0 mm 0.12 in3.0 mm
03:30 AM 42.5°F5.8°C 41.5°F5.3°C 96% Calm Calm -- 30.18 in1022.0 mb 0.00 in0.0 mm 0.00 in0.0 mm 0.12 in3.0 mm
04:30 AM 42.9°F6.1°C 41.9°F5.5°C 96% 2.0 mph SW3.2 kmh SW 2.0 mph3.2 kmh 30.17 in1021.7 mb 0.00 in0.0 mm 0.00 in0.0 mm 0.12 in3.0 mm
05:30 AM 42.9°F6.1°C 41.9°F5.5°C 96% 2.0 mph S3.2 kmh S 3.0 mph4.8 kmh 30.14 in1020.7 mb 0.00 in0.0 mm 0.00 in0.0 mm 0.12 in3.0 mm
06:30 AM 43.1°F6.2°C 42.3°F5.7°C 97% 2.0 mph SSW3.2 kmh SSW 3.0 mph4.8 kmh 30.13 in1020.3 mb 0.00 in0.0 mm 0.00 in0.0 mm 0.12 in3.0 mm
07:30 AM 43.1°F6.2°C 42.3°F5.7°C 97% 1.0 mph S1.6 kmh S 2.0 mph3.2 kmh 30.12 in1020.0 mb 0.00 in0.0 mm 0.00 in0.0 mm 0.12 in3.0 mm
08:30 AM 44.2°F6.8°C 43.7°F6.5°C 98% 4.0 mph SW6.4 kmh SW 6.1 mph9.8 kmh 30.13 in1020.3 mb 0.00 in0.0 mm 0.00 in0.0 mm 0.12 in3.0 mm
09:30 AM 45.6°F7.6°C 44.8°F7.1°C 97% 4.0 mph SW6.4 kmh SW 5.1 mph8.2 kmh 30.13 in1020.3 mb 0.00 in0.0 mm 0.00 in0.0 mm 0.12 in3.0 mm
10:30 AM 46.4°F8.0°C 45.6°F7.6°C 97% 2.0 mph S3.2 kmh S 9.1 mph14.6 kmh 30.12 in1020.0 mb 0.01 in0.3 mm 0.00 in0.0 mm 0.13 in3.3 mm
11:30 AM 47.3°F8.5°C 46.3°F7.9°C 96% 4.0 mph S6.4 kmh S 4.0 mph6.4 kmh 30.06 in1017.9 mb 0.02 in0.5 mm 0.00 in0.0 mm 0.14 in3.6 mm
12:30 PM 48.1°F8.9°C 47.1°F8.4°C 96% Calm Calm 2.0 mph3.2 kmh 30.02 in1016.6 mb 0.01 in0.3 mm 0.00 in0.0 mm 0.14 in3.6 mm
01:30 PM 48.9°F9.4°C 47.9°F8.8°C 96% 5.0 mph S8.0 kmh S 6.1 mph9.8 kmh 29.97 in1014.9 mb 0.00 in0.0 mm 0.00 in0.0 mm 0.14 in3.6 mm
02:30 PM 49.5°F9.7°C 48.4°F9.1°C 96% 1.0 mph S1.6 kmh S 2.0 mph3.2 kmh 29.94 in1013.9 mb 0.02 in0.5 mm 0.00 in0.0 mm 0.16 in4.1 mm
03:30 PM 50.1°F10.1°C 49.2°F9.6°C 97% 6.0 mph SSE9.7 kmh SSE 6.1 mph9.8 kmh 29.93 in1013.5 mb 0.02 in0.5 mm 0.00 in0.0 mm 0.16 in4.1 mm
04:30 PM 50.6°F10.3°C 49.7°F9.8°C 97% 3.0 mph SSW4.8 kmh SSW 6.1 mph9.8 kmh 29.91 in1012.9 mb 0.03 in0.8 mm 0.00 in0.0 mm 0.17 in4.3 mm
05:30 PM 51.2°F10.7°C 50.3°F10.2°C 97% 3.0 mph SSE4.8 kmh SSE 8.1 mph13.0 kmh 29.91 in1012.9 mb 0.00 in0.0 mm 0.00 in0.0 mm 0.17 in4.3 mm
06:30 PM 51.7°F10.9°C 50.8°F10.4°C 97% 3.0 mph SSW4.8 kmh SSW 10.1 mph16.3 kmh 29.91 in1012.9 mb 0.01 in0.3 mm 0.00 in0.0 mm 0.18 in4.6 mm
07:30 PM 51.8°F11.0°C 50.9°F10.5°C 97% 2.0 mph S3.2 kmh S 5.1 mph8.2 kmh 29.89 in1012.2 mb 0.00 in0.0 mm 0.00 in0.0 mm 0.18 in4.6 mm
08:30 PM 52.9°F11.6°C 52.0°F11.1°C 97% 1.0 mph WSW1.6 kmh WSW 4.0 mph6.4 kmh 29.91 in1012.9 mb 0.00 in0.0 mm 0.00 in0.0 mm 0.18 in4.6 mm
09:30 PM 49.0°F9.4°C 48.0°F8.9°C 96% 3.0 mph NW4.8 kmh NW 7.1 mph11.4 kmh 29.92 in1013.2 mb 0.00 in0.0 mm 0.00 in0.0 mm 0.18 in4.6 mm
10:30 PM 50.2°F10.1°C 49.3°F9.6°C 97% 5.0 mph SW8.0 kmh SW 9.1 mph14.6 kmh 29.90 in1012.5 mb 0.00 in0.0 mm 0.00 in0.0 mm 0.18 in4.6 mm
11:30 PM 52.7°F11.5°C 51.6°F10.9°C 96% 5.0 mph WSW8.0 kmh WSW 10.1 mph16.3 kmh 29.91 in1012.9 mb 0.00 in0.0 mm 0.00 in0.0 mm 0.18 in4.6 mm